EDT,Max TemperatureF,Mean TemperatureF,Min TemperatureF,Max Dew PointF,MeanDew PointF,Min DewpointF,Max Humidity, Mean Humidity, Min Humidity, Max Sea Level PressureIn, Mean Sea Level PressureIn, Min Sea Level PressureIn, Max VisibilityMiles, Mean VisibilityMiles, Min VisibilityMiles, Max Wind SpeedMPH, Mean Wind SpeedMPH, Max Gust SpeedMPH,PrecipitationIn, CloudCover, Events, WindDirDegrees
2012-4-1,82,67,52,60,54,48,93,66,31,29.88,29.82,29.75,10,10,6,13,3,22,0.04,1,Rain,355
2012-4-2,88,72,57,64,59,52,87,66,36,29.90,29.79,29.73,10,10,9,13,4,,0.03,2,Rain-Thunderstorm,246
2012-4-3,73,66,60,64,61,58,100,87,71,30.04,29.96,29.89,10,6,2,10,4,,0.01,5,Rain,63
2012-4-4,84,70,57,63,59,55,100,79,42,29.94,29.80,29.69,10,7,0,12,3,41,0.07,2,Fog-Rain,236
2012-4-5,81,67,53,61,56,50,94,78,49,29.80,29.72,29.61,10,8,2,22,7,30,0.76,5,Rain,57
2012-4-6,64,55,46,52,44,37,96,72,41,30.10,29.92,29.77,10,9,5,17,11,24,0.34,5,Rain,56
2012-4-7,72,60,48,44,38,32,83,46,28,30.27,30.19,30.12,10,10,10,10,4,,0.00,0,,154
2012-4-8,78,64,51,48,42,36,83,49,26,30.17,30.09,29.98,10,10,8,13,2,,0.00,0,,241
2012-4-9,78,66,55,42,30,19,46,27,12,30.11,30.01,29.89,10,10,10,20,10,30,0.00,0,,294
2012-4-10,73,62,50,41,36,30,61,37,25,30.02,29.94,29.86,10,10,10,22,7,38,0.00,1,,258
2012-4-11,66,56,46,26,23,18,44,30,18,30.14,30.01,29.92,10,10,10,16,6,24,0.00,0,,353
2012-4-12,64,50,37,32,25,21,60,38,23,30.27,30.19,30.13,10,10,10,12,7,,0.00,0,,64
2012-4-13,70,56,43,37,32,27,74,42,21,30.25,30.20,30.14,10,10,8,9,2,16,0.00,0,,83
2012-4-14,75,60,46,42,39,31,77,44,30,30.34,30.26,30.19,10,10,10,10,5,17,0.00,0,,231
2012-4-15,79,67,55,61,54,40,82,65,46,30.25,30.20,30.15,10,10,9,15,4,21,0.00,4,,217
2012-4-16,81,71,62,60,58,56,84,66,45,30.22,30.17,30.13,10,10,10,20,9,25,0.00,2,,226
2012-4-17,82,71,60,63,59,56,88,69,41,30.19,30.12,30.04,10,9,1,21,5,25,0.32,3,Rain-Thunderstorm,181
2012-4-18,63,58,53,58,53,51,94,89,81,30.15,30.11,30.06,10,9,1,21,14,28,0.53,8,Rain-Thunderstorm,44
2012-4-19,68,58,51,55,53,48,94,78,64,30.10,30.06,30.01,10,10,8,12,7,16,0.00,4,,80
2012-4-20,72,63,55,58,55,53,90,75,59,30.05,29.96,29.87,10,9,6,10,4,,0.00,6,,119
2012-4-21,75,68,60,61,58,55,93,74,53,29.90,29.79,29.70,10,10,7,10,3,,0.00,6,Rain-Thunderstorm,244
2012-4-22,68,57,46,55,49,33,87,70,48,29.69,29.61,29.50,10,10,5,20,11,29,0.30,6,Rain,14
2012-4-23,59,52,44,32,27,21,60,43,25,29.81,29.70,29.64,10,10,10,16,7,26,0.00,1,,306
2012-4-24,66,52,39,40,30,22,65,44,20,29.88,29.82,29.79,10,10,10,17,7,28,0.00,1,,266
2012-4-25,78,64,50,58,48,40,83,58,42,29.95,29.89,29.84,10,10,9,12,3,20,0.01,2,Rain,201
2012-4-26,79,70,62,65,59,53,94,73,52,29.95,29.88,29.82,10,9,2,22,11,29,0.47,4,Rain-Thunderstorm,235
2012-4-27,84,72,61,66,63,59,97,83,49,30.05,29.99,29.89,10,9,2,14,4,20,0.19,3,Rain-Thunderstorm,270
2012-4-28,72,66,59,64,55,49,93,68,56,30.16,30.11,30.04,10,10,6,13,7,,0.00,4,,58
2012-4-29,84,68,55,62,56,52,94,70,42,30.17,30.14,30.09,10,9,6,7,4,,0.00,1,,11
2012-4-30,87,75,64,64,61,59,84,64,41,30.20,30.13,30.07,10,10,10,13,3,17,0.00,2,,174